Time;durP1;ratioP1;P1;durP2;ratioP2;P2;SDS_P1;SDS_P2;PMS_P1;PMS_P2;Temp;Humidity;BMP_temperature;BMP_pressure;BME280_temperature;BME280_humidity;BME280_pressure;Samples;Min_cycle;Max_cycle;Signal;HPM_P1;HPM_P2
2022/07/15 00:00:34;;;;;;;3.90;3.60;;;;;;;;;;2080293;28;20255;-58
2022/07/15 00:01:34;;;;;;;9.57;4.85;;;;;;;;;;2078348;28;20169;-58
2022/07/15 00:02:34;;;;;;;10.48;4.78;;;;;;;;;;2080834;28;20271;-56
2022/07/15 00:03:34;;;;;;;5.68;3.88;;;;;;;;;;2079229;28;20184;-56
2022/07/15 00:04:35;;;;;;;6.90;5.10;;;;;;;;;;2079613;28;20177;-56
2022/07/15 00:05:35;;;;;;;10.98;4.47;;;;;;;;;;2080774;28;20665;-56
2022/07/15 00:06:36;;;;;;;6.68;4.13;;;;;;;;;;2079604;28;20761;-57
2022/07/15 00:07:36;;;;;;;7.65;4.78;;;;;;;;;;2079221;28;20181;-55
2022/07/15 00:08:36;;;;;;;11.68;4.93;;;;;;;;;;2079103;28;20556;-58
2022/07/15 00:10:56;;;;;;;6.70;4.97;;;;;;;;;;2080228;28;20681;-55
2022/07/15 00:11:58;;;;;;;8.15;5.45;;;;;;;;;;2080434;28;20278;-57
2022/07/15 00:12:59;;;;;;;8.20;4.50;;;;;;;;;;2081347;28;20231;-56
2022/07/15 00:13:59;;;;;;;6.60;4.75;;;;;;;;;;2080341;28;20188;-52
2022/07/15 00:15:00;;;;;;;8.57;5.05;;;;;;;;;;2081264;28;20196;-57
2022/07/15 00:16:00;;;;;;;7.93;4.78;;;;;;;;;;2079480;28;20172;-55
2022/07/15 00:17:01;;;;;;;8.45;4.30;;;;;;;;;;2082697;28;20216;-53
2022/07/15 00:18:03;;;;;;;6.63;4.93;;;;;;;;;;2079215;28;20180;-54
2022/07/15 00:19:03;;;;;;;6.65;4.30;;;;;;;;;;2081547;28;20169;-53
2022/07/15 00:20:04;;;;;;;9.50;4.65;;;;;;;;;;2079081;28;20417;-57
2022/07/15 00:21:04;;;;;;;9.45;4.47;;;;;;;;;;2081261;28;20178;-58
2022/07/15 00:22:05;;;;;;;7.88;4.30;;;;;;;;;;2079355;28;20209;-54
2022/07/15 00:23:06;;;;;;;6.32;3.78;;;;;;;;;;2081470;28;20203;-56
2022/07/15 00:24:06;;;;;;;7.03;4.13;;;;;;;;;;2077315;28;20165;-55
2022/07/15 00:25:07;;;;;;;6.82;4.40;;;;;;;;;;2078201;28;20224;-54
2022/07/15 00:26:07;;;;;;;6.65;4.45;;;;;;;;;;2077589;28;20177;-56
2022/07/15 00:27:08;;;;;;;8.32;4.10;;;;;;;;;;2070430;28;20166;-56
2022/07/15 00:28:08;;;;;;;8.20;4.25;;;;;;;;;;2062476;28;20204;-53
2022/07/15 00:29:09;;;;;;;6.05;3.72;;;;;;;;;;2069354;28;20534;-54
2022/07/15 00:30:09;;;;;;;9.30;3.63;;;;;;;;;;2078579;28;20299;-56
2022/07/15 00:31:09;;;;;;;6.05;4.10;;;;;;;;;;2059574;28;20174;-54
2022/07/15 00:32:10;;;;;;;8.52;4.63;;;;;;;;;;2061697;28;20169;-54
2022/07/15 00:33:10;;;;;;;10.43;5.18;;;;;;;;;;2068722;28;20243;-56
2022/07/15 00:34:11;;;;;;;9.15;5.10;;;;;;;;;;2067514;28;20188;-57
2022/07/15 00:35:12;;;;;;;5.90;3.88;;;;;;;;;;2077229;28;20535;-56
2022/07/15 00:36:12;;;;;;;5.82;3.72;;;;;;;;;;2078676;28;20226;-54
2022/07/15 00:37:13;;;;;;;6.28;3.97;;;;;;;;;;2078557;28;20185;-56
2022/07/15 00:38:13;;;;;;;6.68;3.97;;;;;;;;;;2077915;28;20184;-56
2022/07/15 00:39:15;;;;;;;12.88;4.88;;;;;;;;;;2072687;28;20193;-57
2022/07/15 00:40:16;;;;;;;8.30;3.92;;;;;;;;;;2073313;28;20345;-52
2022/07/15 00:41:16;;;;;;;4.40;4.00;;;;;;;;;;2070979;28;20209;-53
2022/07/15 00:43:36;;;;;;;8.50;4.25;;;;;;;;;;2071371;28;20181;-55
2022/07/15 00:44:36;;;;;;;7.10;4.25;;;;;;;;;;2067968;28;20181;-54
2022/07/15 00:45:36;;;;;;;8.98;4.57;;;;;;;;;;2068766;28;20208;-55
2022/07/15 00:46:37;;;;;;;8.40;5.15;;;;;;;;;;2064561;28;20208;-52
2022/07/15 00:47:37;;;;;;;7.43;4.88;;;;;;;;;;2065251;28;20566;-53
2022/07/15 00:48:37;;;;;;;6.07;4.53;;;;;;;;;;2061974;28;20258;-53
2022/07/15 00:49:38;;;;;;;12.52;4.90;;;;;;;;;;2070233;28;20178;-55
2022/07/15 00:50:38;;;;;;;6.90;5.05;;;;;;;;;;2077119;28;20251;-56
2022/07/15 00:51:42;;;;;;;12.68;5.30;;;;;;;;;;2079097;28;20192;-53
2022/07/15 00:52:45;;;;;;;5.60;4.35;;;;;;;;;;2065419;28;20201;-56
2022/07/15 00:53:46;;;;;;;10.23;5.57;;;;;;;;;;2070516;28;20173;-54
2022/07/15 00:54:49;;;;;;;11.15;4.97;;;;;;;;;;2068446;28;20768;-54
2022/07/15 00:55:52;;;;;;;7.93;4.88;;;;;;;;;;2060600;28;20703;-55
2022/07/15 00:56:53;;;;;;;9.40;5.38;;;;;;;;;;2061498;28;20279;-53
2022/07/15 00:57:56;;;;;;;8.77;5.10;;;;;;;;;;2065271;28;20621;-54
2022/07/15 00:58:58;;;;;;;8.73;4.63;;;;;;;;;;2064883;28;20169;-53
2022/07/15 00:59:59;;;;;;;10.73;5.07;;;;;;;;;;2061867;28;20341;-53
2022/07/15 01:01:00;;;;;;;7.75;5.43;;;;;;;;;;2068404;28;20199;-53
2022/07/15 01:02:02;;;;;;;10.65;4.85;;;;;;;;;;2065243;28;20264;-57
2022/07/15 01:03:02;;;;;;;6.50;5.25;;;;;;;;;;2063927;28;20675;-53
2022/07/15 01:04:04;;;;;;;5.63;4.82;;;;;;;;;;2058300;28;20181;-54
2022/07/15 01:05:05;;;;;;;7.30;5.25;;;;;;;;;;2052993;28;20174;-54
2022/07/15 01:06:06;;;;;;;9.70;4.80;;;;;;;;;;2049946;28;20206;-52
2022/07/15 01:07:06;;;;;;;9.63;4.57;;;;;;;;;;2060740;28;20202;-55
2022/07/15 01:08:07;;;;;;;7.82;5.05;;;;;;;;;;2061629;28;20201;-52
2022/07/15 01:09:07;;;;;;;6.35;4.65;;;;;;;;;;2068487;28;20237;-54
2022/07/15 01:10:08;;;;;;;6.85;5.00;;;;;;;;;;2078557;28;20521;-57
2022/07/15 01:11:09;;;;;;;7.65;4.80;;;;;;;;;;2077499;28;20173;-53
2022/07/15 01:12:10;;;;;;;7.93;4.60;;;;;;;;;;2066951;28;20211;-53
2022/07/15 01:13:11;;;;;;;7.40;4.85;;;;;;;;;;2069401;28;20715;-56
2022/07/15 01:14:11;;;;;;;8.25;5.00;;;;;;;;;;2068099;28;20394;-54
2022/07/15 01:15:11;;;;;;;5.93;5.07;;;;;;;;;;2062997;28;20227;-56
2022/07/15 01:16:12;;;;;;;9.25;5.45;;;;;;;;;;2069334;28;20185;-54
2022/07/15 01:17:12;;;;;;;5.78;5.18;;;;;;;;;;2069028;28;20176;-53
2022/07/15 01:18:15;;;;;;;7.57;5.47;;;;;;;;;;2057529;28;20207;-55
2022/07/15 01:19:17;;;;;;;11.10;4.93;;;;;;;;;;2065529;28;20169;-55
2022/07/15 01:20:19;;;;;;;7.55;5.07;;;;;;;;;;2063124;28;20169;-57
2022/07/15 01:21:33;;;;;;;10.88;5.47;;;;;;;;;;2057443;28;20182;-54
2022/07/15 01:22:35;;;;;;;5.75;5.25;;;;;;;;;;2049361;28;20175;-56
2022/07/15 01:23:36;;;;;;;7.78;4.20;;;;;;;;;;2057430;28;20174;-53
2022/07/15 01:24:45;;;;;;;7.80;5.43;;;;;;;;;;2064810;28;20673;-55
2022/07/15 01:25:53;;;;;;;8.38;5.05;;;;;;;;;;2071509;28;20192;-53
2022/07/15 01:26:54;;;;;;;9.25;5.15;;;;;;;;;;2057360;28;20523;-54
2022/07/15 01:27:56;;;;;;;6.72;5.10;;;;;;;;;;2049862;28;20175;-55
2022/07/15 01:28:59;;;;;;;11.43;5.10;;;;;;;;;;2057373;28;20182;-53
2022/07/15 01:29:59;;;;;;;6.18;4.38;;;;;;;;;;2068736;28;20200;-57
2022/07/15 01:31:01;;;;;;;10.70;4.93;;;;;;;;;;2069218;28;20260;-55
2022/07/15 01:32:04;;;;;;;8.30;4.63;;;;;;;;;;2073675;28;20176;-56
2022/07/15 01:33:05;;;;;;;7.28;4.80;;;;;;;;;;2081448;28;20192;-57
2022/07/15 01:34:06;;;;;;;7.20;4.70;;;;;;;;;;2069158;28;20173;-53
2022/07/15 01:35:08;;;;;;;12.85;4.80;;;;;;;;;;2065081;28;20630;-53
2022/07/15 01:36:11;;;;;;;9.45;4.53;;;;;;;;;;2064975;28;20236;-54
2022/07/15 01:37:13;;;;;;;6.55;4.85;;;;;;;;;;2064570;28;20193;-54
2022/07/15 01:38:18;;;;;;;9.40;4.68;;;;;;;;;;2073511;28;20248;-56
2022/07/15 01:39:20;;;;;;;7.18;4.68;;;;;;;;;;2065365;28;20169;-54
2022/07/15 01:40:20;;;;;;;10.00;4.93;;;;;;;;;;2064469;28;20559;-53
2022/07/15 01:41:22;;;;;;;7.85;4.82;;;;;;;;;;2057282;28;20277;-56
2022/07/15 01:42:23;;;;;;;11.73;4.82;;;;;;;;;;2057191;28;20181;-56
2022/07/15 01:43:24;;;;;;;7.57;4.45;;;;;;;;;;2057329;28;20253;-52
2022/07/15 01:44:24;;;;;;;8.25;4.90;;;;;;;;;;2054900;28;20170;-54
2022/07/15 01:45:24;;;;;;;10.77;5.55;;;;;;;;;;2057051;28;20654;-55
2022/07/15 01:46:25;;;;;;;6.20;4.60;;;;;;;;;;2067450;28;20182;-58
2022/07/15 01:47:27;;;;;;;9.40;4.80;;;;;;;;;;2053633;28;20179;-57
2022/07/15 01:50:23;;;;;;;8.00;4.53;;;;;;;;;;2075078;28;20183;-57
2022/07/15 01:51:29;;;;;;;14.27;5.15;;;;;;;;;;2068123;28;20166;-57
2022/07/15 01:52:29;;;;;;;9.98;5.13;;;;;;;;;;2067444;28;20173;-54
2022/07/15 01:53:30;;;;;;;8.55;4.97;;;;;;;;;;2074445;28;20173;-55
2022/07/15 01:54:32;;;;;;;9.27;5.30;;;;;;;;;;2065362;28;20169;-54
2022/07/15 01:55:35;;;;;;;8.45;5.30;;;;;;;;;;2073770;28;20275;-54
2022/07/15 01:56:36;;;;;;;5.95;4.65;;;;;;;;;;2073082;28;20247;-53
2022/07/15 01:57:37;;;;;;;7.30;4.90;;;;;;;;;;2073332;28;20691;-56
2022/07/15 01:58:40;;;;;;;8.93;5.32;;;;;;;;;;2072942;28;20172;-53
2022/07/15 01:59:41;;;;;;;7.32;4.53;;;;;;;;;;2073609;28;20662;-56
2022/07/15 02:00:41;;;;;;;10.27;5.55;;;;;;;;;;2073115;28;20173;-57
2022/07/15 02:01:42;;;;;;;6.20;5.00;;;;;;;;;;2073165;28;20691;-52
2022/07/15 02:02:45;;;;;;;6.65;4.90;;;;;;;;;;2064915;28;20174;-53
2022/07/15 02:03:48;;;;;;;12.65;5.40;;;;;;;;;;2057374;28;20191;-57
2022/07/15 02:04:49;;;;;;;7.70;5.18;;;;;;;;;;2056317;28;20305;-56
2022/07/15 02:05:49;;;;;;;10.75;5.00;;;;;;;;;;2065341;28;20252;-52
2022/07/15 02:06:52;;;;;;;6.20;5.00;;;;;;;;;;2057101;28;20178;-54
2022/07/15 02:07:54;;;;;;;6.75;4.55;;;;;;;;;;2057409;28;20171;-56
2022/07/15 02:08:56;;;;;;;9.35;4.88;;;;;;;;;;2065326;28;20575;-53
2022/07/15 02:09:58;;;;;;;9.98;5.68;;;;;;;;;;2064907;28;20181;-56
2022/07/15 02:10:58;;;;;;;7.88;5.38;;;;;;;;;;2057475;28;20269;-52
2022/07/15 02:11:59;;;;;;;4.85;4.43;;;;;;;;;;2065184;28;20228;-53
2022/07/15 02:13:01;;;;;;;8.63;4.95;;;;;;;;;;2064837;28;20178;-57
2022/07/15 02:14:01;;;;;;;12.35;5.07;;;;;;;;;;2055497;28;20614;-57
2022/07/15 02:15:03;;;;;;;8.60;4.70;;;;;;;;;;2048771;28;20195;-56
2022/07/15 02:16:14;;;;;;;9.27;4.90;;;;;;;;;;2058512;28;20182;-59
2022/07/15 02:17:14;;;;;;;7.47;4.78;;;;;;;;;;2065161;28;20181;-55
2022/07/15 02:18:16;;;;;;;9.70;5.63;;;;;;;;;;2064941;28;20186;-55
2022/07/15 02:19:16;;;;;;;11.18;5.15;;;;;;;;;;2057207;28;20193;-52
2022/07/15 02:20:17;;;;;;;6.57;4.70;;;;;;;;;;2065174;28;20302;-54
2022/07/15 02:21:17;;;;;;;8.70;4.65;;;;;;;;;;2064802;28;20224;-57
2022/07/15 02:22:17;;;;;;;8.40;5.38;;;;;;;;;;2057053;28;20236;-55
2022/07/15 02:23:18;;;;;;;9.25;4.65;;;;;;;;;;2057187;28;20197;-55
2022/07/15 02:24:19;;;;;;;8.07;4.50;;;;;;;;;;2056307;28;20223;-55
2022/07/15 02:25:19;;;;;;;8.75;5.20;;;;;;;;;;2060381;28;20213;-53
2022/07/15 02:26:20;;;;;;;8.95;5.22;;;;;;;;;;2064942;28;20170;-54
2022/07/15 02:27:21;;;;;;;10.25;4.90;;;;;;;;;;2064436;28;20176;-56
2022/07/15 02:28:22;;;;;;;9.07;4.88;;;;;;;;;;2073891;28;20180;-53
2022/07/15 02:29:22;;;;;;;6.60;4.18;;;;;;;;;;2073091;28;20181;-55
2022/07/15 02:30:31;;;;;;;7.05;4.82;;;;;;;;;;2073215;28;20173;-57
2022/07/15 02:31:32;;;;;;;7.93;4.80;;;;;;;;;;2074137;28;20258;-57
2022/07/15 02:32:32;;;;;;;12.77;5.43;;;;;;;;;;2065789;28;20185;-58
2022/07/15 02:33:33;;;;;;;6.68;4.95;;;;;;;;;;2065627;28;20201;-58
2022/07/15 02:34:34;;;;;;;8.95;5.50;;;;;;;;;;2065409;28;20193;-56
2022/07/15 02:35:35;;;;;;;8.40;5.05;;;;;;;;;;2066484;28;20193;-58
2022/07/15 02:36:36;;;;;;;7.93;4.80;;;;;;;;;;2063466;28;20180;-57
2022/07/15 02:37:36;;;;;;;6.07;4.95;;;;;;;;;;2057635;28;20874;-57
2022/07/15 02:38:37;;;;;;;10.75;5.65;;;;;;;;;;2066499;28;20169;-60
2022/07/15 02:39:38;;;;;;;8.52;4.93;;;;;;;;;;2066132;28;20256;-57
2022/07/15 02:40:38;;;;;;;9.93;5.05;;;;;;;;;;2066970;28;20356;-55
2022/07/15 02:41:38;;;;;;;10.15;5.40;;;;;;;;;;2074114;28;20650;-57
2022/07/15 02:42:48;;;;;;;10.50;5.68;;;;;;;;;;2067177;28;20176;-58
2022/07/15 02:43:49;;;;;;;8.82;5.13;;;;;;;;;;2069945;28;20224;-57
2022/07/15 02:44:49;;;;;;;8.27;5.38;;;;;;;;;;2058854;28;20177;-58
2022/07/15 02:45:50;;;;;;;10.57;5.30;;;;;;;;;;2058210;28;20200;-56
2022/07/15 02:46:52;;;;;;;8.23;5.22;;;;;;;;;;2050724;28;20267;-57
2022/07/15 02:47:57;;;;;;;11.23;4.90;;;;;;;;;;2051832;28;20198;-57
2022/07/15 02:49:03;;;;;;;4.90;4.40;;;;;;;;;;2058852;28;20182;-58
2022/07/15 02:50:05;;;;;;;11.15;5.50;;;;;;;;;;2060262;28;20162;-57
2022/07/15 02:51:07;;;;;;;10.27;5.47;;;;;;;;;;2059810;28;20528;-56
2022/07/15 02:52:08;;;;;;;6.72;4.32;;;;;;;;;;2066469;28;20229;-58
2022/07/15 02:53:13;;;;;;;8.02;4.40;;;;;;;;;;2066802;28;20662;-58
2022/07/15 02:54:13;;;;;;;8.68;4.18;;;;;;;;;;2066267;28;20200;-57
2022/07/15 02:55:15;;;;;;;9.25;4.80;;;;;;;;;;2065866;28;20217;-57
2022/07/15 02:56:15;;;;;;;8.23;4.85;;;;;;;;;;2074156;23;20261;-53
2022/07/15 02:57:15;;;;;;;7.13;5.30;;;;;;;;;;2071948;28;20676;-52
2022/07/15 02:58:19;;;;;;;7.68;4.55;;;;;;;;;;2075007;28;20264;-54
2022/07/15 02:59:22;;;;;;;10.77;5.07;;;;;;;;;;2079303;28;20176;-53
2022/07/15 03:00:26;;;;;;;6.80;4.60;;;;;;;;;;2078439;28;20173;-52
2022/07/15 03:01:31;;;;;;;6.70;4.40;;;;;;;;;;2076026;28;20233;-51
2022/07/15 03:02:33;;;;;;;6.55;4.70;;;;;;;;;;2080226;28;20205;-55
2022/07/15 03:03:39;;;;;;;10.88;4.20;;;;;;;;;;2080830;28;20625;-54
2022/07/15 03:04:41;;;;;;;10.98;4.47;;;;;;;;;;2076382;28;20161;-52
2022/07/15 03:05:42;;;;;;;5.78;4.25;;;;;;;;;;2064355;28;20670;-50
2022/07/15 03:06:43;;;;;;;6.35;4.30;;;;;;;;;;2060862;28;20221;-50
2022/07/15 03:07:46;;;;;;;11.27;5.28;;;;;;;;;;2072662;28;20384;-56
2022/07/15 03:08:51;;;;;;;9.35;4.80;;;;;;;;;;2069986;28;20231;-54
2022/07/15 03:09:53;;;;;;;6.28;4.85;;;;;;;;;;2064213;28;20174;-55
2022/07/15 03:10:55;;;;;;;9.20;4.60;;;;;;;;;;2056595;28;20174;-56
2022/07/15 03:11:56;;;;;;;5.53;4.40;;;;;;;;;;2064613;28;20236;-52
2022/07/15 03:12:57;;;;;;;9.65;4.93;;;;;;;;;;2064676;28;20173;-53
2022/07/15 03:13:58;;;;;;;9.50;4.75;;;;;;;;;;2066219;28;20192;-54
2022/07/15 03:14:59;;;;;;;6.97;4.60;;;;;;;;;;2066121;28;20200;-56
2022/07/15 03:15:59;;;;;;;9.05;4.65;;;;;;;;;;2075678;28;20192;-50
2022/07/15 03:17:00;;;;;;;9.45;5.13;;;;;;;;;;2072358;28;20173;-51
2022/07/15 03:18:00;;;;;;;8.02;5.18;;;;;;;;;;2080870;28;20207;-49
2022/07/15 03:19:01;;;;;;;8.07;4.15;;;;;;;;;;2077861;28;20558;-54
2022/07/15 03:20:01;;;;;;;7.35;4.15;;;;;;;;;;2062430;28;20188;-53
2022/07/15 03:21:04;;;;;;;9.02;5.03;;;;;;;;;;2072491;28;20267;-53
2022/07/15 03:22:05;;;;;;;8.50;4.70;;;;;;;;;;2072423;28;20169;-55
2022/07/15 03:23:08;;;;;;;7.40;4.53;;;;;;;;;;2064615;28;20215;-52
2022/07/15 03:24:11;;;;;;;7.28;4.15;;;;;;;;;;2063123;28;20212;-51
2022/07/15 03:25:12;;;;;;;10.15;4.28;;;;;;;;;;2056770;28;20550;-53
2022/07/15 03:26:12;;;;;;;9.13;5.05;;;;;;;;;;2055852;28;20198;-52
2022/07/15 03:27:14;;;;;;;12.55;4.50;;;;;;;;;;2048405;29;20170;-49
2022/07/15 03:28:19;;;;;;;8.15;4.60;;;;;;;;;;2049439;28;20179;-53
2022/07/15 03:29:19;;;;;;;12.85;4.20;;;;;;;;;;2061078;28;20670;-51
2022/07/15 03:30:22;;;;;;;6.00;4.63;;;;;;;;;;2064476;28;20161;-48
2022/07/15 03:31:22;;;;;;;7.32;4.10;;;;;;;;;;2070889;28;20210;-56
2022/07/15 03:32:23;;;;;;;10.63;4.70;;;;;;;;;;2080719;28;20171;-51
2022/07/15 03:33:24;;;;;;;9.85;5.03;;;;;;;;;;2081383;28;20184;-58
2022/07/15 03:34:26;;;;;;;10.77;5.00;;;;;;;;;;2063378;28;20178;-53
2022/07/15 03:35:26;;;;;;;6.38;4.22;;;;;;;;;;2064728;28;20169;-56
2022/07/15 03:36:27;;;;;;;9.43;4.47;;;;;;;;;;2072668;28;20644;-52
2022/07/15 03:37:28;;;;;;;8.32;4.72;;;;;;;;;;2064541;28;20220;-55
2022/07/15 03:38:29;;;;;;;7.55;4.40;;;;;;;;;;2072253;28;20192;-53
2022/07/15 03:39:29;;;;;;;6.20;4.25;;;;;;;;;;2072125;28;20272;-48
2022/07/15 03:40:30;;;;;;;8.45;4.78;;;;;;;;;;2064315;28;20181;-53
2022/07/15 03:41:30;;;;;;;7.63;4.18;;;;;;;;;;2072606;28;20275;-55
2022/07/15 03:42:31;;;;;;;8.40;4.53;;;;;;;;;;2081185;28;20187;-54
2022/07/15 03:43:31;;;;;;;8.13;4.28;;;;;;;;;;2072395;28;20606;-53
2022/07/15 03:44:33;;;;;;;7.05;4.40;;;;;;;;;;2063369;28;20240;-52
2022/07/15 03:45:34;;;;;;;8.80;4.53;;;;;;;;;;2072899;28;20549;-52
2022/07/15 03:46:34;;;;;;;7.38;3.90;;;;;;;;;;2081043;28;20571;-53
2022/07/15 03:47:38;;;;;;;7.00;3.92;;;;;;;;;;2072635;28;20202;-53
2022/07/15 03:48:42;;;;;;;7.78;4.43;;;;;;;;;;2064666;28;20556;-53
2022/07/15 03:49:42;;;;;;;8.02;3.95;;;;;;;;;;2064373;28;20169;-53
2022/07/15 03:50:43;;;;;;;8.98;4.25;;;;;;;;;;2057609;28;20170;-53
2022/07/15 03:51:43;;;;;;;6.65;4.25;;;;;;;;;;2072528;28;20255;-54
2022/07/15 03:52:45;;;;;;;5.05;4.05;;;;;;;;;;2072683;28;20668;-57
2022/07/15 03:53:46;;;;;;;6.50;3.72;;;;;;;;;;2064579;28;20176;-57
2022/07/15 03:54:46;;;;;;;8.18;4.20;;;;;;;;;;2071697;28;20185;-50
2022/07/15 03:55:46;;;;;;;7.97;4.13;;;;;;;;;;2080709;28;20164;-52
2022/07/15 03:56:47;;;;;;;6.80;4.00;;;;;;;;;;2072516;28;20212;-54
2022/07/15 03:57:47;;;;;;;8.48;4.20;;;;;;;;;;2072492;28;20263;-57
2022/07/15 03:58:48;;;;;;;7.25;4.10;;;;;;;;;;2071145;28;20256;-54
2022/07/15 03:59:48;;;;;;;8.27;4.07;;;;;;;;;;2072044;28;20223;-56
2022/07/15 04:00:51;;;;;;;6.55;4.00;;;;;;;;;;2064423;28;20166;-55
2022/07/15 04:01:52;;;;;;;6.10;3.90;;;;;;;;;;2064285;28;20188;-56
2022/07/15 04:02:52;;;;;;;6.00;3.85;;;;;;;;;;2064118;28;20178;-55
2022/07/15 04:03:53;;;;;;;7.65;4.40;;;;;;;;;;2071880;28;20173;-51
2022/07/15 04:04:53;;;;;;;7.32;4.60;;;;;;;;;;2066986;28;20213;-55
2022/07/15 04:05:54;;;;;;;7.53;4.00;;;;;;;;;;2072359;28;20165;-58
2022/07/15 04:06:54;;;;;;;7.07;3.70;;;;;;;;;;2080480;28;20168;-55
2022/07/15 04:07:57;;;;;;;10.20;4.07;;;;;;;;;;2080583;28;20258;-52
2022/07/15 04:08:59;;;;;;;9.13;4.30;;;;;;;;;;2070964;28;20216;-55
2022/07/15 04:10:00;;;;;;;10.10;4.15;;;;;;;;;;2064207;28;20174;-52
2022/07/15 04:11:00;;;;;;;7.45;3.55;;;;;;;;;;2058144;28;20675;-57
2022/07/15 04:12:01;;;;;;;5.50;3.85;;;;;;;;;;2064654;28;20178;-54
2022/07/15 04:13:03;;;;;;;6.22;4.30;;;;;;;;;;2072600;28;20181;-53
2022/07/15 04:14:05;;;;;;;6.95;4.10;;;;;;;;;;2063539;28;20170;-50
2022/07/15 04:15:06;;;;;;;7.53;4.00;;;;;;;;;;2064393;28;20181;-53
2022/07/15 04:16:08;;;;;;;7.40;3.95;;;;;;;;;;2064101;28;20256;-54
2022/07/15 04:17:09;;;;;;;7.72;4.57;;;;;;;;;;2064424;28;20186;-51
2022/07/15 04:18:11;;;;;;;7.20;3.97;;;;;;;;;;2062932;28;20204;-53
2022/07/15 04:19:11;;;;;;;6.85;3.92;;;;;;;;;;2066399;28;20236;-52
2022/07/15 04:20:12;;;;;;;7.95;4.18;;;;;;;;;;2064047;28;20174;-54
2022/07/15 04:21:14;;;;;;;6.30;3.67;;;;;;;;;;2064293;28;20659;-53
2022/07/15 04:22:14;;;;;;;7.70;3.95;;;;;;;;;;2066931;28;20229;-54
2022/07/15 04:23:24;;;;;;;5.97;3.88;;;;;;;;;;2081343;28;20192;-52
2022/07/15 04:24:25;;;;;;;9.75;3.55;;;;;;;;;;2071548;28;20184;-54
2022/07/15 04:25:25;;;;;;;6.35;3.85;;;;;;;;;;2072784;28;20188;-56
2022/07/15 04:26:27;;;;;;;5.50;3.85;;;;;;;;;;2071745;28;20243;-56
2022/07/15 04:27:29;;;;;;;6.18;3.78;;;;;;;;;;2064945;28;20189;-55
2022/07/15 04:28:30;;;;;;;5.32;3.22;;;;;;;;;;2071279;28;20661;-54
2022/07/15 04:29:30;;;;;;;5.45;3.65;;;;;;;;;;2072585;28;20235;-54
2022/07/15 04:30:31;;;;;;;5.20;3.63;;;;;;;;;;2072259;28;20169;-56
2022/07/15 04:31:31;;;;;;;5.70;3.63;;;;;;;;;;2064067;28;20204;-54
2022/07/15 04:32:41;;;;;;;8.55;3.80;;;;;;;;;;2065239;28;20646;-55
2022/07/15 04:33:42;;;;;;;9.82;3.97;;;;;;;;;;2064754;28;20181;-52
2022/07/15 04:34:42;;;;;;;11.82;4.15;;;;;;;;;;2071593;28;20165;-52
2022/07/15 04:35:43;;;;;;;5.43;3.55;;;;;;;;;;2080682;28;20607;-54
2022/07/15 04:36:44;;;;;;;14.50;3.70;;;;;;;;;;2080184;28;20168;-54
2022/07/15 04:37:45;;;;;;;6.00;3.88;;;;;;;;;;2064447;28;20178;-56
2022/07/15 04:38:45;;;;;;;9.80;3.65;;;;;;;;;;2065977;28;20169;-53
2022/07/15 04:39:46;;;;;;;8.43;3.42;;;;;;;;;;2073933;28;20181;-53
2022/07/15 04:40:47;;;;;;;8.77;3.30;;;;;;;;;;2073977;28;20161;-51
2022/07/15 04:41:51;;;;;;;7.60;3.22;;;;;;;;;;2073474;28;20177;-49
2022/07/15 04:42:51;;;;;;;7.40;3.78;;;;;;;;;;2066175;28;20558;-51
2022/07/15 04:43:52;;;;;;;5.30;3.40;;;;;;;;;;2065795;28;20181;-58
2022/07/15 04:44:53;;;;;;;5.63;3.42;;;;;;;;;;2065635;28;20174;-55
2022/07/15 04:45:54;;;;;;;6.28;3.45;;;;;;;;;;2074503;28;20236;-56
2022/07/15 04:46:55;;;;;;;10.05;3.47;;;;;;;;;;2066122;28;20197;-57
2022/07/15 04:50:51;;;;;;;11.38;4.13;;;;;;;;;;2074530;28;20172;-55
2022/07/15 04:51:54;;;;;;;6.97;3.42;;;;;;;;;;2073885;28;20199;-57
2022/07/15 04:52:54;;;;;;;4.45;3.33;;;;;;;;;;2066067;28;20228;-49
2022/07/15 04:53:57;;;;;;;4.70;3.20;;;;;;;;;;2073058;28;20708;-56
2022/07/15 04:54:57;;;;;;;8.63;3.17;;;;;;;;;;2073479;28;20204;-53
2022/07/15 04:55:58;;;;;;;6.10;3.47;;;;;;;;;;2065517;28;20209;-48
2022/07/15 04:56:58;;;;;;;4.82;3.05;;;;;;;;;;2065575;28;20176;-50
2022/07/15 04:58:00;;;;;;;7.90;3.65;;;;;;;;;;2065528;28;20165;-50
2022/07/15 04:59:00;;;;;;;6.10;3.35;;;;;;;;;;2065681;28;20174;-51
2022/07/15 05:00:01;;;;;;;5.75;3.55;;;;;;;;;;2073746;28;20173;-55
2022/07/15 05:01:04;;;;;;;6.10;3.70;;;;;;;;;;2074265;28;20181;-50
2022/07/15 05:02:05;;;;;;;5.82;3.40;;;;;;;;;;2066355;28;20309;-51
2022/07/15 05:03:12;;;;;;;25.13;8.02;;;;;;;;;;2066921;28;20197;-58
2022/07/15 05:04:13;;;;;;;6.43;3.45;;;;;;;;;;2066255;28;20205;-50
2022/07/15 05:05:14;;;;;;;8.85;3.55;;;;;;;;;;2074250;28;20260;-54
2022/07/15 05:06:14;;;;;;;7.22;3.40;;;;;;;;;;2065144;28;20189;-55
2022/07/15 05:07:15;;;;;;;6.63;3.70;;;;;;;;;;2065965;28;20260;-56
2022/07/15 05:08:17;;;;;;;5.43;3.30;;;;;;;;;;2066134;28;20170;-54
2022/07/15 05:09:24;;;;;;;10.82;3.03;;;;;;;;;;2066887;28;20165;-55
2022/07/15 05:10:25;;;;;;;7.68;3.20;;;;;;;;;;2066497;28;20180;-49
2022/07/15 05:11:32;;;;;;;8.02;3.65;;;;;;;;;;2074767;28;20657;-54
2022/07/15 05:12:32;;;;;;;5.75;3.10;;;;;;;;;;2065708;28;20245;-55
2022/07/15 05:13:35;;;;;;;7.35;3.45;;;;;;;;;;2062853;28;20181;-49
2022/07/15 05:14:38;;;;;;;15.32;4.43;;;;;;;;;;2070966;28;20612;-52
2022/07/15 05:15:38;;;;;;;11.55;3.13;;;;;;;;;;2082616;28;20195;-54
2022/07/15 05:16:53;;;;;;;19.52;3.95;;;;;;;;;;2068948;28;20765;-54
2022/07/15 05:17:53;;;;;;;5.03;3.13;;;;;;;;;;2073563;28;20169;-52
2022/07/15 05:18:55;;;;;;;10.38;3.28;;;;;;;;;;2073490;28;20188;-52
2022/07/15 05:19:56;;;;;;;10.57;3.75;;;;;;;;;;2074260;28;20191;-55
2022/07/15 05:20:57;;;;;;;10.70;3.13;;;;;;;;;;2082476;28;20180;-55
2022/07/15 05:22:01;;;;;;;8.88;3.22;;;;;;;;;;2073621;28;20299;-53
2022/07/15 05:23:04;;;;;;;9.23;2.85;;;;;;;;;;2066204;28;20209;-52
2022/07/15 05:24:09;;;;;;;9.50;3.28;;;;;;;;;;2065134;28;20162;-48
2022/07/15 05:25:12;;;;;;;3.80;2.88;;;;;;;;;;2065735;28;20659;-49
2022/07/15 05:26:14;;;;;;;10.85;3.30;;;;;;;;;;2065216;28;20205;-53
2022/07/15 05:27:16;;;;;;;7.82;2.85;;;;;;;;;;2074229;28;20169;-53
2022/07/15 05:28:21;;;;;;;5.38;3.05;;;;;;;;;;2063680;28;20832;-53
2022/07/15 05:29:23;;;;;;;7.47;3.10;;;;;;;;;;2065806;28;20171;-51
2022/07/15 05:30:26;;;;;;;8.20;3.47;;;;;;;;;;2057801;28;20253;-54
2022/07/15 05:31:30;;;;;;;9.57;3.53;;;;;;;;;;2058795;28;20185;-55
2022/07/15 05:32:33;;;;;;;9.88;3.53;;;;;;;;;;2066187;28;20165;-55
2022/07/15 05:33:38;;;;;;;10.93;3.10;;;;;;;;;;2065875;28;20173;-54
2022/07/15 05:34:41;;;;;;;7.40;3.17;;;;;;;;;;2064577;28;20727;-56
2022/07/15 05:35:43;;;;;;;4.63;3.10;;;;;;;;;;2065504;28;20182;-56
2022/07/15 05:36:45;;;;;;;5.65;3.10;;;;;;;;;;2073170;28;20201;-53
2022/07/15 05:37:48;;;;;;;8.82;3.17;;;;;;;;;;2073680;28;20192;-56
2022/07/15 05:38:55;;;;;;;6.75;2.65;;;;;;;;;;2065839;28;20248;-51
2022/07/15 05:39:57;;;;;;;5.90;2.70;;;;;;;;;;2065526;28;20193;-54
2022/07/15 05:41:03;;;;;;;8.32;3.35;;;;;;;;;;2074170;28;20169;-53
2022/07/15 05:42:04;;;;;;;6.43;3.17;;;;;;;;;;2077124;28;20192;-53
2022/07/15 05:43:05;;;;;;;7.55;3.30;;;;;;;;;;2068878;28;20204;-52
2022/07/15 05:44:09;;;;;;;6.88;3.35;;;;;;;;;;2064738;28;20192;-57
2022/07/15 05:45:16;;;;;;;7.97;3.10;;;;;;;;;;2067731;28;20665;-54
2022/07/15 05:46:21;;;;;;;8.35;3.20;;;;;;;;;;2073971;28;20271;-53
2022/07/15 05:47:26;;;;;;;4.07;3.10;;;;;;;;;;2074637;28;20181;-58
2022/07/15 05:48:26;;;;;;;6.38;3.15;;;;;;;;;;2081674;28;20661;-53
2022/07/15 05:49:29;;;;;;;8.00;3.78;;;;;;;;;;2078079;28;20169;-55
2022/07/15 05:50:31;;;;;;;6.82;3.08;;;;;;;;;;2065231;28;20177;-51
2022/07/15 05:51:33;;;;;;;8.60;3.08;;;;;;;;;;2065432;28;20174;-52
2022/07/15 05:52:34;;;;;;;10.20;3.33;;;;;;;;;;2073243;28;20185;-53
2022/07/15 05:53:37;;;;;;;7.53;3.20;;;;;;;;;;2072653;28;20173;-54
2022/07/15 05:54:40;;;;;;;7.78;2.88;;;;;;;;;;2064671;28;20184;-53
2022/07/15 05:55:43;;;;;;;7.35;2.92;;;;;;;;;;2064940;28;20193;-55
2022/07/15 05:56:47;;;;;;;5.72;2.90;;;;;;;;;;2073105;28;20172;-52
2022/07/15 05:57:54;;;;;;;8.27;2.97;;;;;;;;;;2065321;28;20257;-53
2022/07/15 05:59:00;;;;;;;4.63;2.72;;;;;;;;;;2065444;28;20169;-53
2022/07/15 06:00:07;;;;;;;4.15;2.80;;;;;;;;;;2065874;28;20181;-51
2022/07/15 06:01:14;;;;;;;8.05;2.90;;;;;;;;;;2065140;28;20169;-49
2022/07/15 06:02:14;;;;;;;13.02;3.70;;;;;;;;;;2057829;28;20206;-50
2022/07/15 06:03:14;;;;;;;8.05;3.42;;;;;;;;;;2057009;28;20201;-48
2022/07/15 06:04:17;;;;;;;5.80;2.60;;;;;;;;;;2062687;28;20169;-54
2022/07/15 06:05:21;;;;;;;10.40;3.50;;;;;;;;;;2062805;28;20181;-49
2022/07/15 06:06:25;;;;;;;6.47;3.15;;;;;;;;;;2072942;28;20196;-56
2022/07/15 06:07:26;;;;;;;7.55;2.90;;;;;;;;;;2073144;28;20209;-54
2022/07/15 06:08:27;;;;;;;8.60;2.90;;;;;;;;;;2067613;28;20181;-52
2022/07/15 06:09:28;;;;;;;9.88;3.05;;;;;;;;;;2069452;28;20240;-56
2022/07/15 06:10:28;;;;;;;6.35;2.92;;;;;;;;;;2066780;28;20664;-50
2022/07/15 06:11:30;;;;;;;6.40;2.55;;;;;;;;;;2056709;28;20627;-53
2022/07/15 06:12:33;;;;;;;8.32;2.80;;;;;;;;;;2063937;28;20189;-51
2022/07/15 06:13:33;;;;;;;5.38;2.40;;;;;;;;;;2063450;28;20272;-53
2022/07/15 06:14:34;;;;;;;5.25;2.65;;;;;;;;;;2063874;28;20193;-54
2022/07/15 06:15:36;;;;;;;6.60;2.80;;;;;;;;;;2069058;28;20265;-50
2022/07/15 06:16:37;;;;;;;7.45;2.65;;;;;;;;;;2068732;28;20344;-52